sensor_id;sensor_type;location;lat;lon;timestamp;temperature;humidity
13074;DHT22;6603;47.066;15.396;2024-03-02T00:02:25;8.30;99.90
13074;DHT22;6603;47.066;15.396;2024-03-02T00:04:51;8.30;99.90
13074;DHT22;6603;47.066;15.396;2024-03-02T00:07:17;8.30;99.90
13074;DHT22;6603;47.066;15.396;2024-03-02T00:09:43;8.30;99.90
13074;DHT22;6603;47.066;15.396;2024-03-02T00:12:12;8.30;99.90
13074;DHT22;6603;47.066;15.396;2024-03-02T00:14:42;8.30;99.90
13074;DHT22;6603;47.066;15.396;2024-03-02T00:17:24;8.20;99.90
13074;DHT22;6603;47.066;15.396;2024-03-02T00:19:51;8.30;99.90
13074;DHT22;6603;47.066;15.396;2024-03-02T00:22:18;8.30;99.90
13074;DHT22;6603;47.066;15.396;2024-03-02T00:24:44;8.30;99.90
13074;DHT22;6603;47.066;15.396;2024-03-02T00:27:13;8.30;99.90
13074;DHT22;6603;47.066;15.396;2024-03-02T00:29:41;8.30;99.90
13074;DHT22;6603;47.066;15.396;2024-03-02T00:32:15;8.20;99.90
13074;DHT22;6603;47.066;15.396;2024-03-02T00:34:42;8.20;99.90
13074;DHT22;6603;47.066;15.396;2024-03-02T00:37:08;8.20;99.90
13074;DHT22;6603;47.066;15.396;2024-03-02T00:39:34;8.30;99.90
13074;DHT22;6603;47.066;15.396;2024-03-02T00:42:00;8.20;99.90
13074;DHT22;6603;47.066;15.396;2024-03-02T00:44:26;8.20;99.90
13074;DHT22;6603;47.066;15.396;2024-03-02T00:46:52;8.20;99.90
13074;DHT22;6603;47.066;15.396;2024-03-02T00:49:23;8.30;99.90
13074;DHT22;6603;47.066;15.396;2024-03-02T00:51:51;8.20;99.90
13074;DHT22;6603;47.066;15.396;2024-03-02T00:54:22;8.20;99.90
13074;DHT22;6603;47.066;15.396;2024-03-02T00:56:50;8.10;99.90
13074;DHT22;6603;47.066;15.396;2024-03-02T00:59:16;8.10;99.90
13074;DHT22;6603;47.066;15.396;2024-03-02T01:01:42;8.10;99.90
13074;DHT22;6603;47.066;15.396;2024-03-02T01:04:09;8.10;99.90
13074;DHT22;6603;47.066;15.396;2024-03-02T01:06:35;8.10;99.90
13074;DHT22;6603;47.066;15.396;2024-03-02T01:09:02;8.10;99.90
13074;DHT22;6603;47.066;15.396;2024-03-02T01:11:31;8.00;99.90
13074;DHT22;6603;47.066;15.396;2024-03-02T01:13:57;8.00;99.90
13074;DHT22;6603;47.066;15.396;2024-03-02T01:16:23;8.10;99.90
13074;DHT22;6603;47.066;15.396;2024-03-02T01:18:49;8.10;99.90
13074;DHT22;6603;47.066;15.396;2024-03-02T01:21:15;8.10;99.90
13074;DHT22;6603;47.066;15.396;2024-03-02T01:23:41;8.20;99.90
13074;DHT22;6603;47.066;15.396;2024-03-02T01:26:07;8.10;99.90
13074;DHT22;6603;47.066;15.396;2024-03-02T01:28:33;8.10;99.90
13074;DHT22;6603;47.066;15.396;2024-03-02T01:30:59;8.10;99.90
13074;DHT22;6603;47.066;15.396;2024-03-02T01:33:25;8.10;99.90
13074;DHT22;6603;47.066;15.396;2024-03-02T01:35:51;8.00;99.90
13074;DHT22;6603;47.066;15.396;2024-03-02T01:38:17;8.00;99.90
13074;DHT22;6603;47.066;15.396;2024-03-02T01:40:42;8.10;99.90
13074;DHT22;6603;47.066;15.396;2024-03-02T01:43:10;8.00;99.90
13074;DHT22;6603;47.066;15.396;2024-03-02T01:45:36;7.90;99.90
13074;DHT22;6603;47.066;15.396;2024-03-02T01:48:06;8.00;99.90
13074;DHT22;6603;47.066;15.396;2024-03-02T01:50:33;8.00;99.90
13074;DHT22;6603;47.066;15.396;2024-03-02T01:53:00;8.00;99.90
13074;DHT22;6603;47.066;15.396;2024-03-02T01:55:28;8.00;99.90
13074;DHT22;6603;47.066;15.396;2024-03-02T01:57:58;7.90;99.90
13074;DHT22;6603;47.066;15.396;2024-03-02T02:00:25;7.80;99.90
13074;DHT22;6603;47.066;15.396;2024-03-02T02:02:52;7.90;99.90
13074;DHT22;6603;47.066;15.396;2024-03-02T02:05:18;7.90;99.90
13074;DHT22;6603;47.066;15.396;2024-03-02T02:07:44;7.80;99.90
13074;DHT22;6603;47.066;15.396;2024-03-02T02:10:10;7.90;99.90
13074;DHT22;6603;47.066;15.396;2024-03-02T02:12:37;7.90;99.90
13074;DHT22;6603;47.066;15.396;2024-03-02T02:15:04;8.00;99.90
13074;DHT22;6603;47.066;15.396;2024-03-02T02:17:31;8.10;99.90
13074;DHT22;6603;47.066;15.396;2024-03-02T02:19:57;8.10;99.90
13074;DHT22;6603;47.066;15.396;2024-03-02T02:22:23;8.00;99.90
13074;DHT22;6603;47.066;15.396;2024-03-02T02:24:49;8.00;99.90
13074;DHT22;6603;47.066;15.396;2024-03-02T02:27:15;8.00;99.90
13074;DHT22;6603;47.066;15.396;2024-03-02T02:29:41;8.00;99.90
13074;DHT22;6603;47.066;15.396;2024-03-02T02:32:07;8.00;99.90
13074;DHT22;6603;47.066;15.396;2024-03-02T02:34:33;8.00;99.90
13074;DHT22;6603;47.066;15.396;2024-03-02T02:36:59;7.90;99.90
13074;DHT22;6603;47.066;15.396;2024-03-02T02:39:26;7.90;99.90
13074;DHT22;6603;47.066;15.396;2024-03-02T02:41:52;7.90;99.90
13074;DHT22;6603;47.066;15.396;2024-03-02T02:44:18;7.80;99.90
13074;DHT22;6603;47.066;15.396;2024-03-02T02:46:44;7.80;99.90
13074;DHT22;6603;47.066;15.396;2024-03-02T02:49:10;7.80;99.90
13074;DHT22;6603;47.066;15.396;2024-03-02T02:51:36;7.80;99.90
13074;DHT22;6603;47.066;15.396;2024-03-02T02:54:02;7.80;99.90
13074;DHT22;6603;47.066;15.396;2024-03-02T02:56:28;7.70;99.90
13074;DHT22;6603;47.066;15.396;2024-03-02T02:58:54;7.80;99.90
13074;DHT22;6603;47.066;15.396;2024-03-02T03:01:20;7.80;99.90
13074;DHT22;6603;47.066;15.396;2024-03-02T03:03:46;7.70;99.90
13074;DHT22;6603;47.066;15.396;2024-03-02T03:06:12;7.60;99.90
13074;DHT22;6603;47.066;15.396;2024-03-02T03:08:38;7.70;99.90
13074;DHT22;6603;47.066;15.396;2024-03-02T03:11:06;7.70;99.90
13074;DHT22;6603;47.066;15.396;2024-03-02T03:13:34;7.80;99.90
13074;DHT22;6603;47.066;15.396;2024-03-02T03:16:00;7.70;99.90
13074;DHT22;6603;47.066;15.396;2024-03-02T03:18:26;7.70;99.90
13074;DHT22;6603;47.066;15.396;2024-03-02T03:20:52;7.60;99.90
13074;DHT22;6603;47.066;15.396;2024-03-02T03:23:17;7.60;99.90
13074;DHT22;6603;47.066;15.396;2024-03-02T03:25:44;7.50;99.90
13074;DHT22;6603;47.066;15.396;2024-03-02T03:28:10;7.50;99.90
13074;DHT22;6603;47.066;15.396;2024-03-02T03:30:39;7.50;99.90
13074;DHT22;6603;47.066;15.396;2024-03-02T03:33:05;7.50;99.90
13074;DHT22;6603;47.066;15.396;2024-03-02T03:35:34;7.50;99.90
13074;DHT22;6603;47.066;15.396;2024-03-02T03:38:01;7.50;99.90
13074;DHT22;6603;47.066;15.396;2024-03-02T03:40:26;7.50;99.90
13074;DHT22;6603;47.066;15.396;2024-03-02T03:42:52;7.60;99.90
13074;DHT22;6603;47.066;15.396;2024-03-02T03:45:18;7.50;99.90
13074;DHT22;6603;47.066;15.396;2024-03-02T03:47:45;7.50;99.90
13074;DHT22;6603;47.066;15.396;2024-03-02T03:50:11;7.50;99.90
13074;DHT22;6603;47.066;15.396;2024-03-02T03:52:38;7.50;99.90
13074;DHT22;6603;47.066;15.396;2024-03-02T03:55:04;7.40;99.90
13074;DHT22;6603;47.066;15.396;2024-03-02T03:57:30;7.40;99.90
13074;DHT22;6603;47.066;15.396;2024-03-02T03:59:56;7.40;99.90
13074;DHT22;6603;47.066;15.396;2024-03-02T04:02:22;7.40;99.90
13074;DHT22;6603;47.066;15.396;2024-03-02T04:04:50;7.30;99.90
13074;DHT22;6603;47.066;15.396;2024-03-02T04:07:15;7.30;99.90
13074;DHT22;6603;47.066;15.396;2024-03-02T04:09:41;7.30;99.90
13074;DHT22;6603;47.066;15.396;2024-03-02T04:12:07;7.30;99.90
13074;DHT22;6603;47.066;15.396;2024-03-02T04:14:33;7.20;99.90
13074;DHT22;6603;47.066;15.396;2024-03-02T04:16:59;7.20;99.90
13074;DHT22;6603;47.066;15.396;2024-03-02T04:19:25;7.20;99.90
13074;DHT22;6603;47.066;15.396;2024-03-02T04:21:51;7.20;99.90
13074;DHT22;6603;47.066;15.396;2024-03-02T04:24:17;7.20;99.90
13074;DHT22;6603;47.066;15.396;2024-03-02T04:26:43;7.10;99.90
13074;DHT22;6603;47.066;15.396;2024-03-02T04:29:09;7.20;99.90
13074;DHT22;6603;47.066;15.396;2024-03-02T04:31:35;7.20;99.90
13074;DHT22;6603;47.066;15.396;2024-03-02T04:34:00;7.30;99.90
13074;DHT22;6603;47.066;15.396;2024-03-02T04:36:26;7.40;99.90
13074;DHT22;6603;47.066;15.396;2024-03-02T04:38:52;7.40;99.90
13074;DHT22;6603;47.066;15.396;2024-03-02T04:41:18;7.40;99.90
13074;DHT22;6603;47.066;15.396;2024-03-02T04:43:44;7.40;99.90
13074;DHT22;6603;47.066;15.396;2024-03-02T04:46:10;7.30;99.90
13074;DHT22;6603;47.066;15.396;2024-03-02T04:48:36;7.30;99.90
13074;DHT22;6603;47.066;15.396;2024-03-02T04:51:02;7.40;99.90
13074;DHT22;6603;47.066;15.396;2024-03-02T04:53:28;7.30;99.90
13074;DHT22;6603;47.066;15.396;2024-03-02T04:55:54;7.40;99.90
13074;DHT22;6603;47.066;15.396;2024-03-02T04:58:38;7.40;99.90
13074;DHT22;6603;47.066;15.396;2024-03-02T05:01:04;7.30;99.90
13074;DHT22;6603;47.066;15.396;2024-03-02T05:03:30;7.30;99.90
13074;DHT22;6603;47.066;15.396;2024-03-02T05:05:56;7.30;99.90
13074;DHT22;6603;47.066;15.396;2024-03-02T05:08:22;7.30;99.90
13074;DHT22;6603;47.066;15.396;2024-03-02T05:10:47;7.40;99.90
13074;DHT22;6603;47.066;15.396;2024-03-02T05:13:13;7.40;99.90
13074;DHT22;6603;47.066;15.396;2024-03-02T05:15:39;7.50;99.90
13074;DHT22;6603;47.066;15.396;2024-03-02T05:18:06;7.40;99.90
13074;DHT22;6603;47.066;15.396;2024-03-02T05:20:32;7.30;99.90
13074;DHT22;6603;47.066;15.396;2024-03-02T05:22:58;7.30;99.90
13074;DHT22;6603;47.066;15.396;2024-03-02T05:25:23;7.20;99.90
13074;DHT22;6603;47.066;15.396;2024-03-02T05:27:49;7.30;99.90
13074;DHT22;6603;47.066;15.396;2024-03-02T05:30:15;7.20;99.90
13074;DHT22;6603;47.066;15.396;2024-03-02T05:32:41;7.20;99.90
13074;DHT22;6603;47.066;15.396;2024-03-02T05:35:07;7.30;99.90
13074;DHT22;6603;47.066;15.396;2024-03-02T05:37:34;7.30;99.90
13074;DHT22;6603;47.066;15.396;2024-03-02T05:40:00;7.20;99.90
13074;DHT22;6603;47.066;15.396;2024-03-02T05:42:26;7.20;99.90
13074;DHT22;6603;47.066;15.396;2024-03-02T05:44:52;7.20;99.90
13074;DHT22;6603;47.066;15.396;2024-03-02T05:47:19;7.10;99.90
13074;DHT22;6603;47.066;15.396;2024-03-02T05:49:44;7.10;99.90
13074;DHT22;6603;47.066;15.396;2024-03-02T05:52:10;7.20;99.90
13074;DHT22;6603;47.066;15.396;2024-03-02T05:54:37;7.20;99.90
13074;DHT22;6603;47.066;15.396;2024-03-02T05:57:04;7.30;99.90
13074;DHT22;6603;47.066;15.396;2024-03-02T05:59:50;7.20;99.90
13074;DHT22;6603;47.066;15.396;2024-03-02T06:02:16;7.10;99.90
13074;DHT22;6603;47.066;15.396;2024-03-02T06:04:42;7.10;99.90
13074;DHT22;6603;47.066;15.396;2024-03-02T06:07:08;7.10;99.90
13074;DHT22;6603;47.066;15.396;2024-03-02T06:09:33;7.00;99.90
13074;DHT22;6603;47.066;15.396;2024-03-02T06:11:59;7.00;99.90
13074;DHT22;6603;47.066;15.396;2024-03-02T06:14:26;6.90;99.90
13074;DHT22;6603;47.066;15.396;2024-03-02T06:16:52;7.00;99.90
13074;DHT22;6603;47.066;15.396;2024-03-02T06:19:17;7.00;99.90
13074;DHT22;6603;47.066;15.396;2024-03-02T06:21:43;7.00;99.90
13074;DHT22;6603;47.066;15.396;2024-03-02T06:24:09;7.00;99.90
13074;DHT22;6603;47.066;15.396;2024-03-02T06:26:35;7.10;99.90
13074;DHT22;6603;47.066;15.396;2024-03-02T06:29:01;7.00;99.90
13074;DHT22;6603;47.066;15.396;2024-03-02T06:31:28;7.00;99.90
13074;DHT22;6603;47.066;15.396;2024-03-02T06:33:53;7.10;99.90
13074;DHT22;6603;47.066;15.396;2024-03-02T06:36:19;7.10;99.90
13074;DHT22;6603;47.066;15.396;2024-03-02T06:38:45;7.20;99.90
13074;DHT22;6603;47.066;15.396;2024-03-02T06:41:11;7.20;99.90
13074;DHT22;6603;47.066;15.396;2024-03-02T06:43:37;7.20;99.90
13074;DHT22;6603;47.066;15.396;2024-03-02T06:46:04;7.30;99.90
13074;DHT22;6603;47.066;15.396;2024-03-02T06:48:31;7.30;99.90
13074;DHT22;6603;47.066;15.396;2024-03-02T06:50:57;7.30;99.90
13074;DHT22;6603;47.066;15.396;2024-03-02T06:53:23;7.40;99.90
13074;DHT22;6603;47.066;15.396;2024-03-02T06:55:49;7.40;99.90
13074;DHT22;6603;47.066;15.396;2024-03-02T06:58:15;7.50;99.90
13074;DHT22;6603;47.066;15.396;2024-03-02T07:00:42;7.50;99.90
13074;DHT22;6603;47.066;15.396;2024-03-02T07:03:08;7.50;99.90
13074;DHT22;6603;47.066;15.396;2024-03-02T07:05:34;7.60;99.90
13074;DHT22;6603;47.066;15.396;2024-03-02T07:08:00;7.60;99.90
13074;DHT22;6603;47.066;15.396;2024-03-02T07:10:27;7.70;99.90
13074;DHT22;6603;47.066;15.396;2024-03-02T07:12:53;7.70;99.90
13074;DHT22;6603;47.066;15.396;2024-03-02T07:15:19;7.80;99.90
13074;DHT22;6603;47.066;15.396;2024-03-02T07:18:07;7.90;99.90
13074;DHT22;6603;47.066;15.396;2024-03-02T07:20:33;8.00;99.90
13074;DHT22;6603;47.066;15.396;2024-03-02T07:22:59;8.10;99.90
13074;DHT22;6603;47.066;15.396;2024-03-02T07:25:25;8.10;99.90
13074;DHT22;6603;47.066;15.396;2024-03-02T07:27:51;8.20;99.90
13074;DHT22;6603;47.066;15.396;2024-03-02T07:30:18;8.30;99.90
13074;DHT22;6603;47.066;15.396;2024-03-02T07:32:44;8.40;99.90
13074;DHT22;6603;47.066;15.396;2024-03-02T07:35:14;8.40;99.90
13074;DHT22;6603;47.066;15.396;2024-03-02T07:37:42;8.60;99.90
13074;DHT22;6603;47.066;15.396;2024-03-02T07:40:08;8.60;99.90
13074;DHT22;6603;47.066;15.396;2024-03-02T07:42:38;8.60;99.90
13074;DHT22;6603;47.066;15.396;2024-03-02T07:45:05;8.70;99.90
13074;DHT22;6603;47.066;15.396;2024-03-02T07:47:35;8.70;99.90
13074;DHT22;6603;47.066;15.396;2024-03-02T07:50:02;8.80;99.90
13074;DHT22;6603;47.066;15.396;2024-03-02T07:52:28;8.80;99.90
13074;DHT22;6603;47.066;15.396;2024-03-02T07:54:54;8.90;99.90
13074;DHT22;6603;47.066;15.396;2024-03-02T07:57:21;9.00;99.90
13074;DHT22;6603;47.066;15.396;2024-03-02T07:59:47;9.10;99.90
13074;DHT22;6603;47.066;15.396;2024-03-02T08:02:13;9.20;99.90
13074;DHT22;6603;47.066;15.396;2024-03-02T08:04:39;9.20;99.90
13074;DHT22;6603;47.066;15.396;2024-03-02T08:07:05;9.20;99.90
13074;DHT22;6603;47.066;15.396;2024-03-02T08:09:30;9.30;99.90
13074;DHT22;6603;47.066;15.396;2024-03-02T08:11:56;9.30;99.90
13074;DHT22;6603;47.066;15.396;2024-03-02T08:14:25;9.30;99.90
13074;DHT22;6603;47.066;15.396;2024-03-02T08:16:51;9.50;99.90
13074;DHT22;6603;47.066;15.396;2024-03-02T08:19:17;9.60;99.90
13074;DHT22;6603;47.066;15.396;2024-03-02T08:21:43;9.70;99.90
13074;DHT22;6603;47.066;15.396;2024-03-02T08:24:09;9.70;99.90
13074;DHT22;6603;47.066;15.396;2024-03-02T08:26:34;9.80;99.90
13074;DHT22;6603;47.066;15.396;2024-03-02T08:29:01;9.90;99.90
13074;DHT22;6603;47.066;15.396;2024-03-02T08:31:29;9.90;99.90
13074;DHT22;6603;47.066;15.396;2024-03-02T08:33:55;10.00;99.90
13074;DHT22;6603;47.066;15.396;2024-03-02T08:36:23;10.20;99.90
13074;DHT22;6603;47.066;15.396;2024-03-02T08:38:52;10.20;99.90
13074;DHT22;6603;47.066;15.396;2024-03-02T08:41:17;10.20;99.90
13074;DHT22;6603;47.066;15.396;2024-03-02T08:43:44;10.30;99.90
13074;DHT22;6603;47.066;15.396;2024-03-02T08:46:10;10.30;99.90
13074;DHT22;6603;47.066;15.396;2024-03-02T08:48:35;10.30;99.90
13074;DHT22;6603;47.066;15.396;2024-03-02T08:51:01;10.40;99.90
13074;DHT22;6603;47.066;15.396;2024-03-02T08:53:30;10.50;99.90
13074;DHT22;6603;47.066;15.396;2024-03-02T08:55:56;10.50;99.90
13074;DHT22;6603;47.066;15.396;2024-03-02T08:58:21;10.50;99.90
13074;DHT22;6603;47.066;15.396;2024-03-02T09:00:47;10.50;99.90
13074;DHT22;6603;47.066;15.396;2024-03-02T09:03:13;10.50;99.90
13074;DHT22;6603;47.066;15.396;2024-03-02T09:05:40;10.50;99.90
13074;DHT22;6603;47.066;15.396;2024-03-02T09:08:09;10.50;99.90
13074;DHT22;6603;47.066;15.396;2024-03-02T09:10:35;10.70;99.90
13074;DHT22;6603;47.066;15.396;2024-03-02T09:13:00;10.80;99.90
13074;DHT22;6603;47.066;15.396;2024-03-02T09:15:26;10.90;99.90
13074;DHT22;6603;47.066;15.396;2024-03-02T09:17:52;11.00;99.90
13074;DHT22;6603;47.066;15.396;2024-03-02T09:20:18;11.10;99.90
13074;DHT22;6603;47.066;15.396;2024-03-02T09:22:43;11.20;99.90
13074;DHT22;6603;47.066;15.396;2024-03-02T09:25:09;11.30;99.90
13074;DHT22;6603;47.066;15.396;2024-03-02T09:27:39;11.40;99.90
13074;DHT22;6603;47.066;15.396;2024-03-02T09:30:08;11.50;99.90
13074;DHT22;6603;47.066;15.396;2024-03-02T09:32:34;11.50;99.90
13074;DHT22;6603;47.066;15.396;2024-03-02T09:35:00;11.70;99.90
13074;DHT22;6603;47.066;15.396;2024-03-02T09:37:26;11.70;99.90
13074;DHT22;6603;47.066;15.396;2024-03-02T09:39:52;12.00;99.90
13074;DHT22;6603;47.066;15.396;2024-03-02T09:42:18;12.20;92.20
13074;DHT22;6603;47.066;15.396;2024-03-02T09:44:44;12.10;99.90
13074;DHT22;6603;47.066;15.396;2024-03-02T09:47:10;12.00;98.20
13074;DHT22;6603;47.066;15.396;2024-03-02T09:49:36;11.90;79.70
13074;DHT22;6603;47.066;15.396;2024-03-02T09:52:03;11.90;99.90
13074;DHT22;6603;47.066;15.396;2024-03-02T09:54:30;12.00;99.90
13074;DHT22;6603;47.066;15.396;2024-03-02T09:56:55;11.70;66.80
13074;DHT22;6603;47.066;15.396;2024-03-02T09:59:21;11.70;99.90
13074;DHT22;6603;47.066;15.396;2024-03-02T10:02:00;11.80;99.90
13074;DHT22;6603;47.066;15.396;2024-03-02T10:04:27;11.70;92.90
13074;DHT22;6603;47.066;15.396;2024-03-02T10:07:14;11.70;98.70
13074;DHT22;6603;47.066;15.396;2024-03-02T10:09:42;11.70;92.70
13074;DHT22;6603;47.066;15.396;2024-03-02T10:12:09;11.70;74.50
13074;DHT22;6603;47.066;15.396;2024-03-02T10:14:37;11.70;79.40
13074;DHT22;6603;47.066;15.396;2024-03-02T10:17:13;11.90;75.40
13074;DHT22;6603;47.066;15.396;2024-03-02T10:19:42;11.90;70.20
13074;DHT22;6603;47.066;15.396;2024-03-02T10:22:09;12.00;48.10
13074;DHT22;6603;47.066;15.396;2024-03-02T10:24:42;12.10;61.40
13074;DHT22;6603;47.066;15.396;2024-03-02T10:27:25;12.10;20.30
13074;DHT22;6603;47.066;15.396;2024-03-02T10:29:52;12.10;8.80
13074;DHT22;6603;47.066;15.396;2024-03-02T10:32:22;12.10;26.40
13074;DHT22;6603;47.066;15.396;2024-03-02T10:34:48;12.20;28.00
13074;DHT22;6603;47.066;15.396;2024-03-02T10:37:15;12.30;1.00
13074;DHT22;6603;47.066;15.396;2024-03-02T10:39:42;12.40;5.10
13074;DHT22;6603;47.066;15.396;2024-03-02T10:42:09;12.50;1.00
13074;DHT22;6603;47.066;15.396;2024-03-02T10:44:35;12.50;1.00
13074;DHT22;6603;47.066;15.396;2024-03-02T10:47:02;12.50;1.50
13074;DHT22;6603;47.066;15.396;2024-03-02T10:49:30;12.60;1.00
13074;DHT22;6603;47.066;15.396;2024-03-02T10:51:58;12.70;1.00
13074;DHT22;6603;47.066;15.396;2024-03-02T10:54:24;12.80;1.00
13074;DHT22;6603;47.066;15.396;2024-03-02T10:56:59;13.00;1.00
13074;DHT22;6603;47.066;15.396;2024-03-02T10:59:36;13.00;1.00
13074;DHT22;6603;47.066;15.396;2024-03-02T11:02:07;13.00;1.00
13074;DHT22;6603;47.066;15.396;2024-03-02T11:04:37;13.00;1.00
13074;DHT22;6603;47.066;15.396;2024-03-02T11:07:08;12.70;1.00
13074;DHT22;6603;47.066;15.396;2024-03-02T11:09:41;12.70;1.00
13074;DHT22;6603;47.066;15.396;2024-03-02T11:14:34;12.80;1.00
13074;DHT22;6603;47.066;15.396;2024-03-02T11:17:04;12.60;1.00
13074;DHT22;6603;47.066;15.396;2024-03-02T11:19:31;12.70;1.00
13074;DHT22;6603;47.066;15.396;2024-03-02T11:21:57;12.80;1.00
13074;DHT22;6603;47.066;15.396;2024-03-02T11:26:50;13.00;1.00
13074;DHT22;6603;47.066;15.396;2024-03-02T11:32:04;13.30;99.90
13074;DHT22;6603;47.066;15.396;2024-03-02T11:37:05;13.30;1.00
13074;DHT22;6603;47.066;15.396;2024-03-02T11:39:31;13.50;1.00
13074;DHT22;6603;47.066;15.396;2024-03-02T11:41:58;13.70;1.00
13074;DHT22;6603;47.066;15.396;2024-03-02T11:44:27;13.70;1.00
13074;DHT22;6603;47.066;15.396;2024-03-02T11:47:01;13.70;1.00
13074;DHT22;6603;47.066;15.396;2024-03-02T11:49:44;13.80;1.00
13074;DHT22;6603;47.066;15.396;2024-03-02T11:52:12;13.90;1.00
13074;DHT22;6603;47.066;15.396;2024-03-02T11:54:40;14.00;1.00
13074;DHT22;6603;47.066;15.396;2024-03-02T11:57:07;13.70;99.90
13074;DHT22;6603;47.066;15.396;2024-03-02T11:59:34;13.70;1.00
13074;DHT22;6603;47.066;15.396;2024-03-02T12:02:00;14.10;1.00
13074;DHT22;6603;47.066;15.396;2024-03-02T12:04:26;14.20;99.90
13074;DHT22;6603;47.066;15.396;2024-03-02T12:06:57;14.20;1.00
13074;DHT22;6603;47.066;15.396;2024-03-02T12:09:30;14.30;1.00
13074;DHT22;6603;47.066;15.396;2024-03-02T12:12:06;14.30;99.90
13074;DHT22;6603;47.066;15.396;2024-03-02T12:14:34;14.30;99.90
13074;DHT22;6603;47.066;15.396;2024-03-02T12:17:01;14.60;99.90
13074;DHT22;6603;47.066;15.396;2024-03-02T12:19:27;14.70;1.00
13074;DHT22;6603;47.066;15.396;2024-03-02T12:21:56;14.50;1.50
13074;DHT22;6603;47.066;15.396;2024-03-02T12:24:23;14.70;99.90
13074;DHT22;6603;47.066;15.396;2024-03-02T12:26:50;14.70;1.00
13074;DHT22;6603;47.066;15.396;2024-03-02T12:29:18;14.80;1.00
13074;DHT22;6603;47.066;15.396;2024-03-02T12:31:45;14.90;1.00
13074;DHT22;6603;47.066;15.396;2024-03-02T12:34:13;14.70;1.00
13074;DHT22;6603;47.066;15.396;2024-03-02T12:36:39;14.90;1.00
13074;DHT22;6603;47.066;15.396;2024-03-02T12:39:08;15.40;99.90
13074;DHT22;6603;47.066;15.396;2024-03-02T12:41:39;15.70;99.90
13074;DHT22;6603;47.066;15.396;2024-03-02T12:44:05;15.30;2.10
13074;DHT22;6603;47.066;15.396;2024-03-02T12:46:32;14.90;1.00
13074;DHT22;6603;47.066;15.396;2024-03-02T12:49:04;14.90;99.90
13074;DHT22;6603;47.066;15.396;2024-03-02T12:51:30;14.60;1.00
13074;DHT22;6603;47.066;15.396;2024-03-02T12:54:00;14.50;1.00
13074;DHT22;6603;47.066;15.396;2024-03-02T12:56:27;14.40;19.20
13074;DHT22;6603;47.066;15.396;2024-03-02T12:58:54;14.30;99.90
13074;DHT22;6603;47.066;15.396;2024-03-02T13:01:20;14.30;1.00
13074;DHT22;6603;47.066;15.396;2024-03-02T13:03:52;14.20;99.90
13074;DHT22;6603;47.066;15.396;2024-03-02T13:06:19;14.20;1.00
13074;DHT22;6603;47.066;15.396;2024-03-02T13:08:46;14.40;41.50
13074;DHT22;6603;47.066;15.396;2024-03-02T13:11:16;14.30;1.00
13074;DHT22;6603;47.066;15.396;2024-03-02T13:13:42;14.40;1.00
13074;DHT22;6603;47.066;15.396;2024-03-02T13:16:09;14.30;1.00
13074;DHT22;6603;47.066;15.396;2024-03-02T13:18:36;14.20;1.00
13074;DHT22;6603;47.066;15.396;2024-03-02T13:21:02;14.10;99.90
13074;DHT22;6603;47.066;15.396;2024-03-02T13:23:28;14.10;1.00
13074;DHT22;6603;47.066;15.396;2024-03-02T13:25:57;13.90;99.90
13074;DHT22;6603;47.066;15.396;2024-03-02T13:28:25;14.00;1.00
13074;DHT22;6603;47.066;15.396;2024-03-02T13:30:50;14.00;1.00
13074;DHT22;6603;47.066;15.396;2024-03-02T13:33:16;14.10;99.90
13074;DHT22;6603;47.066;15.396;2024-03-02T13:35:49;14.00;99.90
13074;DHT22;6603;47.066;15.396;2024-03-02T13:38:20;14.00;1.00
13074;DHT22;6603;47.066;15.396;2024-03-02T13:40:48;13.90;1.00
13074;DHT22;6603;47.066;15.396;2024-03-02T13:43:18;13.90;1.00
13074;DHT22;6603;47.066;15.396;2024-03-02T13:45:44;13.80;1.00
13074;DHT22;6603;47.066;15.396;2024-03-02T13:48:10;13.80;1.00
13074;DHT22;6603;47.066;15.396;2024-03-02T13:50:36;13.90;1.00
13074;DHT22;6603;47.066;15.396;2024-03-02T13:53:02;13.80;1.00
13074;DHT22;6603;47.066;15.396;2024-03-02T13:55:29;13.80;1.00
13074;DHT22;6603;47.066;15.396;2024-03-02T13:57:55;13.70;1.00
13074;DHT22;6603;47.066;15.396;2024-03-02T14:00:21;13.60;1.00
13074;DHT22;6603;47.066;15.396;2024-03-02T14:02:46;13.50;1.00
13074;DHT22;6603;47.066;15.396;2024-03-02T14:05:15;13.50;1.00
13074;DHT22;6603;47.066;15.396;2024-03-02T14:07:41;13.30;1.00
13074;DHT22;6603;47.066;15.396;2024-03-02T14:10:07;13.30;1.00
13074;DHT22;6603;47.066;15.396;2024-03-02T14:12:33;13.30;1.00
13074;DHT22;6603;47.066;15.396;2024-03-02T14:14:59;13.20;1.00
13074;DHT22;6603;47.066;15.396;2024-03-02T14:17:28;13.10;1.00
13074;DHT22;6603;47.066;15.396;2024-03-02T14:19:54;13.10;1.00
13074;DHT22;6603;47.066;15.396;2024-03-02T14:22:20;13.00;1.00
13074;DHT22;6603;47.066;15.396;2024-03-02T14:24:46;13.00;1.00
13074;DHT22;6603;47.066;15.396;2024-03-02T14:27:13;13.00;1.00
13074;DHT22;6603;47.066;15.396;2024-03-02T14:29:43;13.00;1.00
13074;DHT22;6603;47.066;15.396;2024-03-02T14:32:09;12.90;1.00
13074;DHT22;6603;47.066;15.396;2024-03-02T14:34:35;12.80;1.00
13074;DHT22;6603;47.066;15.396;2024-03-02T14:37:00;12.80;1.00
13074;DHT22;6603;47.066;15.396;2024-03-02T14:39:27;12.80;1.00
13074;DHT22;6603;47.066;15.396;2024-03-02T14:41:52;12.80;1.00
13074;DHT22;6603;47.066;15.396;2024-03-02T14:44:20;12.70;1.00
13074;DHT22;6603;47.066;15.396;2024-03-02T14:46:49;12.70;1.00
13074;DHT22;6603;47.066;15.396;2024-03-02T14:49:16;12.70;1.00
13074;DHT22;6603;47.066;15.396;2024-03-02T14:51:41;12.60;1.00
13074;DHT22;6603;47.066;15.396;2024-03-02T14:54:07;12.60;1.00
13074;DHT22;6603;47.066;15.396;2024-03-02T14:56:33;12.50;1.00
13074;DHT22;6603;47.066;15.396;2024-03-02T14:58:59;12.50;1.00
13074;DHT22;6603;47.066;15.396;2024-03-02T15:01:25;12.50;1.00
13074;DHT22;6603;47.066;15.396;2024-03-02T15:03:51;12.50;1.00
13074;DHT22;6603;47.066;15.396;2024-03-02T15:06:17;12.40;1.00
13074;DHT22;6603;47.066;15.396;2024-03-02T15:08:43;12.40;1.00
13074;DHT22;6603;47.066;15.396;2024-03-02T15:11:09;12.40;1.00
13074;DHT22;6603;47.066;15.396;2024-03-02T15:13:36;12.40;30.60
13074;DHT22;6603;47.066;15.396;2024-03-02T15:16:02;12.40;48.20
13074;DHT22;6603;47.066;15.396;2024-03-02T15:18:28;12.40;52.80
13074;DHT22;6603;47.066;15.396;2024-03-02T15:20:54;12.50;40.70
13074;DHT22;6603;47.066;15.396;2024-03-02T15:23:20;12.40;47.30
13074;DHT22;6603;47.066;15.396;2024-03-02T15:25:46;12.50;33.60
13074;DHT22;6603;47.066;15.396;2024-03-02T15:28:12;12.50;44.00
13074;DHT22;6603;47.066;15.396;2024-03-02T15:30:37;12.50;54.80
13074;DHT22;6603;47.066;15.396;2024-03-02T15:33:03;12.50;15.20
13074;DHT22;6603;47.066;15.396;2024-03-02T15:35:29;12.50;23.30
13074;DHT22;6603;47.066;15.396;2024-03-02T15:37:56;12.50;23.10
13074;DHT22;6603;47.066;15.396;2024-03-02T15:40:22;12.40;19.90
13074;DHT22;6603;47.066;15.396;2024-03-02T15:42:47;12.40;19.20
13074;DHT22;6603;47.066;15.396;2024-03-02T15:45:13;12.40;11.70
13074;DHT22;6603;47.066;15.396;2024-03-02T15:47:39;12.40;15.50
13074;DHT22;6603;47.066;15.396;2024-03-02T15:50:05;12.30;14.30
13074;DHT22;6603;47.066;15.396;2024-03-02T15:52:32;12.30;9.70